createdAt,value
2023-04-27T00:00:54.342Z,6.60
2023-04-27T00:03:25.034Z,6.60
2023-04-27T00:05:52.713Z,6.60
2023-04-27T00:08:19.695Z,6.50
2023-04-27T00:10:46.820Z,6.50
2023-04-27T00:13:13.609Z,6.50
2023-04-27T00:15:41.269Z,6.40
2023-04-27T00:18:08.177Z,6.50
2023-04-27T00:20:35.707Z,6.50
2023-04-27T00:23:02.526Z,6.60
2023-04-27T00:25:29.374Z,6.60
2023-04-27T00:27:56.564Z,6.50
2023-04-27T00:30:23.517Z,6.40
2023-04-27T00:32:51.059Z,6.40
2023-04-27T00:35:17.949Z,6.30
2023-04-27T00:37:44.805Z,6.20
2023-04-27T00:40:12.263Z,6.20
2023-04-27T00:42:39.042Z,6.20
2023-04-27T00:45:07.038Z,6.20
2023-04-27T00:47:34.948Z,6.20
2023-04-27T00:50:02.336Z,6.20
2023-04-27T00:52:29.199Z,6.20
2023-04-27T00:54:56.000Z,6.20
2023-04-27T00:57:23.458Z,6.20
2023-04-27T00:59:50.386Z,6.30
2023-04-27T01:02:18.106Z,6.30
2023-04-27T01:04:45.401Z,6.30
2023-04-27T01:07:12.853Z,6.30
2023-04-27T01:09:39.603Z,6.30
2023-04-27T01:12:06.908Z,6.30
2023-04-27T01:14:33.753Z,6.30
2023-04-27T01:17:00.974Z,6.30
2023-04-27T01:19:28.786Z,6.20
2023-04-27T01:21:55.921Z,6.30
2023-04-27T01:24:23.253Z,6.40
2023-04-27T01:26:52.337Z,6.40
2023-04-27T01:29:19.260Z,6.40
2023-04-27T01:31:46.806Z,6.40
2023-04-27T01:34:13.602Z,6.40
2023-04-27T01:36:40.582Z,6.40
2023-04-27T01:39:09.448Z,6.40
2023-04-27T01:41:37.491Z,6.40
2023-04-27T01:44:05.103Z,6.30
2023-04-27T01:46:32.964Z,6.30
2023-04-27T01:49:00.210Z,6.30
2023-04-27T01:51:27.705Z,6.30
2023-04-27T01:53:54.587Z,6.30
2023-04-27T01:56:21.922Z,6.30
2023-04-27T01:58:48.778Z,6.30
2023-04-27T02:01:15.734Z,6.30
2023-04-27T02:03:42.613Z,6.30
2023-04-27T02:06:09.546Z,6.30
2023-04-27T02:08:36.374Z,6.30
2023-04-27T02:11:03.309Z,6.30
2023-04-27T02:13:30.919Z,6.30
2023-04-27T02:15:57.739Z,6.30
2023-04-27T02:18:25.401Z,6.30
2023-04-27T02:20:54.357Z,6.30
2023-04-27T02:23:21.308Z,6.30
2023-04-27T02:25:48.167Z,6.40
2023-04-27T02:28:15.497Z,6.40
2023-04-27T02:30:42.751Z,6.40
2023-04-27T02:33:10.254Z,6.40
2023-04-27T02:35:37.146Z,6.40
2023-04-27T02:38:04.734Z,6.50
2023-04-27T02:40:31.538Z,6.40
2023-04-27T02:42:58.311Z,6.40
2023-04-27T02:45:25.265Z,6.40
2023-04-27T02:47:52.293Z,6.40
2023-04-27T02:50:19.366Z,6.40
2023-04-27T02:52:46.169Z,6.40
2023-04-27T02:55:15.099Z,6.50
2023-04-27T02:57:42.212Z,6.50
2023-04-27T03:00:11.056Z,6.50
2023-04-27T03:02:38.172Z,6.50
2023-04-27T03:05:06.051Z,6.50
2023-04-27T03:07:32.872Z,6.50
2023-04-27T03:10:01.119Z,6.50
2023-04-27T03:12:28.508Z,6.50
2023-04-27T03:14:56.471Z,6.50
2023-04-27T03:17:23.293Z,6.50
2023-04-27T03:19:50.844Z,6.50
2023-04-27T03:22:17.652Z,6.50
2023-04-27T03:24:44.514Z,6.60
2023-04-27T03:27:11.542Z,6.40
2023-04-27T03:29:38.471Z,6.50
2023-04-27T03:32:06.500Z,6.50
2023-04-27T03:34:33.577Z,6.50
2023-04-27T03:37:00.337Z,6.50
2023-04-27T03:39:27.791Z,6.50
2023-04-27T03:41:54.638Z,6.40
2023-04-27T03:44:24.062Z,6.50
2023-04-27T03:46:51.431Z,6.50
2023-04-27T03:49:18.213Z,6.50
2023-04-27T03:51:45.003Z,6.60
2023-04-27T03:54:12.050Z,6.60
2023-04-27T03:56:38.913Z,6.60
2023-04-27T03:59:05.984Z,6.60
2023-04-27T04:01:33.987Z,6.60
2023-04-27T04:04:01.694Z,6.60
2023-04-27T04:06:28.672Z,6.60
2023-04-27T04:08:56.172Z,6.50
2023-04-27T04:11:26.369Z,6.40
2023-04-27T04:13:53.779Z,6.60
2023-04-27T04:16:21.440Z,6.60
2023-04-27T04:18:48.884Z,6.70
2023-04-27T04:21:15.769Z,6.70
2023-04-27T04:23:42.559Z,6.70
2023-04-27T04:26:13.646Z,6.70
2023-04-27T04:28:40.447Z,6.80
2023-04-27T04:31:09.828Z,6.80
2023-04-27T04:33:37.474Z,6.80
2023-04-27T04:36:04.829Z,6.80
2023-04-27T04:38:32.954Z,6.80
2023-04-27T04:41:00.004Z,6.80
2023-04-27T04:43:26.884Z,6.80
2023-04-27T04:45:53.696Z,6.80
2023-04-27T04:48:20.549Z,6.80
2023-04-27T04:50:48.252Z,6.80
2023-04-27T04:53:15.953Z,6.80
2023-04-27T04:55:43.545Z,6.80
2023-04-27T04:58:10.885Z,6.80
2023-04-27T05:00:38.601Z,6.90
2023-04-27T05:03:07.573Z,6.90
2023-04-27T05:05:34.922Z,6.90
2023-04-27T05:08:01.712Z,6.90
2023-04-27T05:10:29.113Z,7.00
2023-04-27T05:12:55.993Z,7.00
2023-04-27T05:15:22.804Z,7.00
2023-04-27T05:17:49.893Z,7.00
2023-04-27T05:20:16.851Z,7.00
2023-04-27T05:22:44.156Z,7.00
2023-04-27T05:25:11.236Z,7.00
2023-04-27T05:27:38.075Z,7.00
2023-04-27T05:30:05.264Z,7.00
2023-04-27T05:32:33.842Z,7.00
2023-04-27T05:35:00.768Z,7.10
2023-04-27T05:37:28.269Z,7.10
2023-04-27T05:39:55.254Z,7.10
2023-04-27T05:42:22.118Z,7.00
2023-04-27T05:44:49.008Z,7.10
2023-04-27T05:47:16.522Z,7.10
2023-04-27T05:49:43.556Z,7.20
2023-04-27T05:52:10.796Z,7.30
2023-04-27T05:54:37.640Z,7.30
2023-04-27T05:57:05.156Z,7.30
2023-04-27T05:59:31.913Z,7.30
2023-04-27T06:01:59.165Z,7.40
2023-04-27T06:04:26.193Z,7.40
2023-04-27T06:06:53.055Z,7.40
2023-04-27T06:09:22.936Z,7.40
2023-04-27T06:11:52.042Z,7.50
2023-04-27T06:14:18.895Z,7.70
2023-04-27T06:16:45.664Z,7.70
2023-04-27T06:19:12.900Z,7.70
2023-04-27T06:21:39.875Z,7.70
2023-04-27T06:24:07.067Z,7.80
2023-04-27T06:26:34.637Z,7.80
2023-04-27T06:29:04.264Z,7.80
2023-04-27T06:31:31.491Z,7.80
2023-04-27T06:33:58.278Z,7.90
2023-04-27T06:36:27.860Z,7.80
2023-04-27T06:38:58.249Z,8.00
2023-04-27T06:41:27.503Z,8.00
2023-04-27T06:43:55.802Z,8.00
2023-04-27T06:46:24.025Z,8.10
2023-04-27T06:48:52.710Z,8.10
2023-04-27T06:51:19.526Z,8.20
2023-04-27T06:53:46.435Z,8.30
2023-04-27T06:56:13.232Z,8.40
2023-04-27T06:58:40.133Z,8.40
2023-04-27T07:01:07.662Z,8.50
2023-04-27T07:03:37.861Z,8.50
2023-04-27T07:06:05.043Z,8.60
2023-04-27T07:08:31.896Z,8.70
2023-04-27T07:10:58.860Z,8.80
2023-04-27T07:13:26.464Z,9.00
2023-04-27T07:16:01.042Z,9.00
2023-04-27T07:18:31.064Z,9.20
2023-04-27T07:20:58.316Z,9.30
2023-04-27T07:23:25.156Z,9.50
2023-04-27T07:25:52.108Z,9.60
2023-04-27T07:28:19.656Z,9.80
2023-04-27T07:30:46.524Z,9.90
2023-04-27T07:33:13.519Z,10.10
2023-04-27T07:35:41.305Z,10.20
2023-04-27T07:38:10.893Z,10.30
2023-04-27T07:40:38.406Z,10.40
2023-04-27T07:43:05.560Z,10.50
2023-04-27T07:45:32.883Z,10.70
2023-04-27T07:48:00.492Z,10.80
2023-04-27T07:50:28.553Z,10.90
2023-04-27T07:52:55.380Z,11.00
2023-04-27T07:55:23.543Z,11.10
2023-04-27T07:57:51.997Z,11.20
2023-04-27T08:00:19.393Z,11.40
2023-04-27T08:02:46.648Z,11.50
2023-04-27T08:05:14.417Z,11.60
2023-04-27T08:07:44.382Z,11.80
2023-04-27T08:10:12.094Z,11.80
2023-04-27T08:12:39.051Z,11.90
2023-04-27T08:15:07.068Z,12.10
2023-04-27T08:17:34.113Z,12.30
2023-04-27T08:20:02.059Z,12.50
2023-04-27T08:22:28.848Z,12.80
2023-04-27T08:24:55.571Z,13.20
2023-04-27T08:27:23.169Z,13.30
2023-04-27T08:29:50.223Z,13.50
2023-04-27T08:32:17.371Z,13.70
2023-04-27T08:34:47.120Z,13.70
2023-04-27T08:37:13.985Z,13.80
2023-04-27T08:39:40.969Z,14.00
2023-04-27T08:42:12.449Z,14.20
2023-04-27T08:44:43.418Z,14.20
2023-04-27T08:47:10.499Z,14.30
2023-04-27T08:49:41.854Z,14.30
2023-04-27T08:52:15.652Z,14.40
2023-04-27T08:54:43.617Z,14.50
2023-04-27T08:57:14.420Z,14.40
2023-04-27T08:59:41.416Z,14.40
2023-04-27T09:02:19.133Z,14.40
2023-04-27T09:04:46.840Z,14.40
2023-04-27T09:07:15.455Z,14.40
2023-04-27T09:09:42.607Z,14.40
2023-04-27T09:12:21.781Z,14.50
2023-04-27T09:14:58.298Z,14.70
2023-04-27T09:17:28.545Z,14.70
2023-04-27T09:20:13.247Z,14.90
2023-04-27T09:22:47.355Z,15.00
2023-04-27T09:25:27.827Z,15.10
2023-04-27T09:27:55.932Z,15.10
2023-04-27T09:30:22.869Z,15.10
2023-04-27T09:32:51.480Z,15.30
2023-04-27T09:35:23.330Z,15.30
2023-04-27T09:37:52.908Z,15.40
2023-04-27T09:40:26.766Z,15.50
2023-04-27T09:42:54.895Z,15.60
2023-04-27T09:45:22.197Z,15.60
2023-04-27T09:47:49.363Z,15.70
2023-04-27T09:50:16.232Z,15.80
2023-04-27T09:52:43.474Z,15.80
2023-04-27T09:55:34.591Z,15.90
2023-04-27T09:58:33.102Z,15.90
2023-04-27T10:01:26.786Z,16.00
2023-04-27T10:04:22.860Z,16.10
2023-04-27T10:07:01.454Z,16.10
2023-04-27T10:09:35.598Z,16.20
2023-04-27T10:12:23.723Z,16.30
2023-04-27T10:14:57.292Z,16.40
2023-04-27T10:17:31.745Z,16.50
2023-04-27T10:20:03.892Z,16.50
2023-04-27T10:22:46.955Z,16.60
2023-04-27T10:25:18.928Z,16.60
2023-04-27T10:28:00.272Z,16.60
2023-04-27T10:30:38.010Z,16.60
2023-04-27T10:33:10.520Z,16.60
2023-04-27T10:35:41.766Z,16.60
2023-04-27T10:38:09.211Z,16.60
2023-04-27T10:40:40.666Z,16.60
2023-04-27T10:43:12.318Z,16.60
2023-04-27T10:46:51.126Z,16.70
2023-04-27T10:49:08.858Z,16.70
2023-04-27T10:55:57.919Z,16.80
2023-04-27T10:58:23.457Z,16.90
2023-04-27T11:00:50.669Z,16.90
2023-04-27T11:03:27.202Z,16.90
2023-04-27T11:06:04.633Z,16.90
2023-04-27T11:08:33.176Z,16.90
2023-04-27T11:11:00.074Z,16.90
2023-04-27T11:13:30.676Z,16.90
2023-04-27T11:15:59.675Z,17.00
2023-04-27T11:18:29.218Z,17.10
2023-04-27T11:21:09.750Z,17.30
2023-04-27T11:23:40.150Z,17.40
2023-04-27T11:26:19.674Z,17.50
2023-04-27T11:29:00.751Z,17.60
2023-04-27T11:31:28.310Z,17.60
2023-04-27T11:33:55.979Z,17.70
2023-04-27T11:36:26.034Z,17.90
2023-04-27T11:38:58.415Z,17.90
2023-04-27T11:41:36.766Z,18.00
2023-04-27T11:44:08.375Z,18.20
2023-04-27T11:46:39.190Z,18.20
2023-04-27T11:49:09.156Z,18.20
2023-04-27T11:51:38.769Z,18.30
2023-04-27T11:54:08.574Z,18.40
2023-04-27T11:56:42.582Z,18.40
2023-04-27T11:59:23.070Z,18.40
2023-04-27T12:01:51.084Z,18.50
2023-04-27T12:04:18.744Z,18.50
2023-04-27T12:06:48.442Z,18.60
2023-04-27T12:09:17.494Z,18.70
2023-04-27T12:11:44.304Z,18.80
2023-04-27T12:14:11.459Z,18.90
2023-04-27T12:16:38.613Z,19.00
2023-04-27T12:19:05.586Z,19.10
2023-04-27T12:21:32.417Z,19.10
2023-04-27T12:23:59.259Z,19.10
2023-04-27T12:26:26.701Z,19.00
2023-04-27T12:28:56.030Z,19.10
2023-04-27T12:31:27.656Z,19.20
2023-04-27T12:33:54.864Z,19.20
2023-04-27T12:36:21.681Z,19.30
2023-04-27T12:38:48.590Z,19.30
2023-04-27T12:41:16.134Z,19.20
2023-04-27T12:43:43.633Z,19.20
2023-04-27T12:46:10.635Z,19.30
2023-04-27T12:48:37.564Z,19.40
2023-04-27T12:51:07.355Z,19.50
2023-04-27T12:53:34.192Z,19.60
2023-04-27T12:56:02.058Z,19.70
2023-04-27T12:58:30.038Z,19.70
2023-04-27T13:00:57.889Z,19.70
2023-04-27T13:03:25.169Z,19.80
2023-04-27T13:05:52.827Z,19.90
2023-04-27T13:08:22.532Z,19.90
2023-04-27T13:10:50.230Z,19.80
2023-04-27T13:13:19.763Z,19.80
2023-04-27T13:15:46.917Z,19.80
2023-04-27T13:18:14.532Z,19.70
2023-04-27T13:20:41.427Z,19.60
2023-04-27T13:23:08.282Z,19.60
2023-04-27T13:25:35.259Z,19.50
2023-04-27T13:28:05.336Z,19.50
2023-04-27T13:30:33.162Z,19.40
2023-04-27T13:33:14.242Z,19.40
2023-04-27T13:35:45.912Z,19.50
2023-04-27T13:38:13.212Z,19.60
2023-04-27T13:40:40.689Z,19.70
2023-04-27T13:43:08.330Z,19.70
2023-04-27T13:45:36.685Z,19.60
2023-04-27T13:48:03.675Z,19.60
2023-04-27T13:50:30.531Z,19.50
2023-04-27T13:52:57.455Z,19.50
2023-04-27T13:55:24.353Z,19.50
2023-04-27T13:57:51.363Z,19.50
2023-04-27T14:00:21.618Z,19.40
2023-04-27T14:02:48.502Z,19.30
2023-04-27T14:05:15.611Z,19.30
2023-04-27T14:07:42.485Z,19.30
2023-04-27T14:10:09.622Z,19.30
2023-04-27T14:12:36.834Z,19.30
2023-04-27T14:15:03.945Z,19.30
2023-04-27T14:17:31.541Z,19.30
2023-04-27T14:19:58.401Z,19.40
2023-04-27T14:22:25.260Z,19.30
2023-04-27T14:24:52.129Z,19.30
2023-04-27T14:27:19.195Z,19.30
2023-04-27T14:29:52.240Z,19.20
2023-04-27T14:32:19.651Z,19.20
2023-04-27T14:34:46.518Z,19.20
2023-04-27T14:37:13.646Z,19.10
2023-04-27T14:39:42.798Z,19.10
2023-04-27T14:42:14.305Z,19.10
2023-04-27T14:44:41.190Z,19.00
2023-04-27T14:47:08.013Z,19.00
2023-04-27T14:49:34.886Z,19.00
2023-04-27T14:52:04.823Z,19.00
2023-04-27T14:54:32.489Z,18.90
2023-04-27T14:57:01.182Z,18.90
2023-04-27T14:59:28.240Z,18.90
2023-04-27T15:01:55.777Z,19.00
2023-04-27T15:04:23.062Z,19.00
2023-04-27T15:06:49.930Z,19.00
2023-04-27T15:09:16.868Z,19.00
2023-04-27T15:11:43.615Z,19.00
2023-04-27T15:14:10.542Z,19.00
2023-04-27T15:16:37.446Z,19.00
2023-04-27T15:19:04.389Z,19.00
2023-04-27T15:21:32.411Z,18.90
2023-04-27T15:23:59.355Z,18.90
2023-04-27T15:26:28.751Z,18.90
2023-04-27T15:28:58.258Z,18.90
2023-04-27T15:31:25.206Z,18.90
2023-04-27T15:33:53.911Z,18.80
2023-04-27T15:36:22.954Z,18.80
2023-04-27T15:38:51.890Z,18.80
2023-04-27T15:41:19.085Z,18.70
2023-04-27T15:43:46.175Z,18.80
2023-04-27T15:46:13.424Z,18.70
2023-04-27T15:48:40.365Z,18.60
2023-04-27T15:51:10.069Z,18.60
2023-04-27T15:53:37.357Z,18.50
2023-04-27T15:56:04.254Z,18.40
2023-04-27T15:58:34.188Z,18.40
2023-04-27T16:01:01.373Z,18.20
2023-04-27T16:03:28.790Z,18.20
2023-04-27T16:05:56.041Z,18.20
2023-04-27T16:08:22.900Z,18.20
2023-04-27T16:10:50.598Z,18.00
2023-04-27T16:13:17.488Z,18.00
2023-04-27T16:15:44.813Z,18.00
2023-04-27T16:18:12.334Z,18.00
2023-04-27T16:20:39.351Z,17.90
2023-04-27T16:23:06.945Z,17.90
2023-04-27T16:25:33.726Z,17.80
2023-04-27T16:28:00.564Z,17.70
2023-04-27T16:30:27.405Z,17.70
2023-04-27T16:32:54.346Z,17.60
2023-04-27T16:35:21.654Z,17.50
2023-04-27T16:37:50.256Z,17.50
2023-04-27T16:40:17.105Z,17.50
2023-04-27T16:42:44.044Z,17.70
2023-04-27T16:45:11.804Z,17.90
2023-04-27T16:47:38.878Z,17.90
2023-04-27T16:50:06.556Z,17.90
2023-04-27T16:52:33.344Z,17.90
2023-04-27T16:55:00.455Z,17.80
2023-04-27T16:57:27.433Z,17.70
2023-04-27T16:59:54.256Z,17.80
2023-04-27T17:02:25.134Z,17.80
2023-04-27T17:04:53.809Z,17.90
2023-04-27T17:07:21.363Z,17.90
2023-04-27T17:09:48.608Z,17.60
2023-04-27T17:12:16.852Z,17.40
2023-04-27T17:14:43.652Z,17.30
2023-04-27T17:17:10.877Z,17.20
2023-04-27T17:19:39.534Z,17.20
2023-04-27T17:22:08.170Z,17.00
2023-04-27T17:24:34.935Z,16.90
2023-04-27T17:27:02.704Z,16.60
2023-04-27T17:29:29.545Z,16.80
2023-04-27T17:31:56.391Z,17.00
2023-04-27T17:34:23.298Z,17.00
2023-04-27T17:36:50.077Z,16.90
2023-04-27T17:39:22.562Z,16.70
2023-04-27T17:41:51.931Z,16.50
2023-04-27T17:44:18.769Z,16.30
2023-04-27T17:46:47.847Z,16.20
2023-04-27T17:49:15.917Z,16.10
2023-04-27T17:51:46.481Z,16.00
2023-04-27T17:54:13.928Z,15.80
2023-04-27T17:56:43.953Z,15.80
2023-04-27T17:59:11.436Z,15.70
2023-04-27T18:01:38.359Z,15.60
2023-04-27T18:04:09.863Z,15.50
2023-04-27T18:06:36.714Z,15.40
2023-04-27T18:09:03.650Z,15.40
2023-04-27T18:11:30.518Z,15.30
2023-04-27T18:14:00.486Z,15.10
2023-04-27T18:16:27.375Z,15.10
2023-04-27T18:18:54.736Z,15.10
2023-04-27T18:21:21.549Z,15.00
2023-04-27T18:23:48.444Z,14.90
2023-04-27T18:26:16.654Z,14.80
2023-04-27T18:28:43.469Z,14.70
2023-04-27T18:31:21.028Z,14.70
2023-04-27T18:33:47.912Z,14.60
2023-04-27T18:36:15.288Z,14.50
2023-04-27T18:38:42.123Z,14.40
2023-04-27T18:41:11.145Z,14.30
2023-04-27T18:43:40.304Z,14.10
2023-04-27T18:46:07.891Z,14.00
2023-04-27T18:48:34.796Z,13.90
2023-04-27T18:51:04.301Z,13.90
2023-04-27T18:53:31.056Z,13.90
2023-04-27T18:55:57.868Z,13.90
2023-04-27T18:58:24.732Z,13.90
2023-04-27T19:00:51.714Z,13.90
2023-04-27T19:03:19.369Z,13.80
2023-04-27T19:05:46.873Z,13.70
2023-04-27T19:08:16.819Z,13.60
2023-04-27T19:10:46.121Z,13.60
2023-04-27T19:13:13.765Z,13.60
2023-04-27T19:15:40.798Z,13.60
2023-04-27T19:18:10.954Z,13.60
2023-04-27T19:20:39.092Z,13.50
2023-04-27T19:23:09.489Z,13.40
2023-04-27T19:25:36.821Z,13.40
2023-04-27T19:28:04.545Z,13.30
2023-04-27T19:30:32.944Z,13.30
2023-04-27T19:32:59.751Z,13.20
2023-04-27T19:35:27.477Z,13.10
2023-04-27T19:37:56.052Z,13.10
2023-04-27T19:40:22.820Z,13.00
2023-04-27T19:42:50.635Z,13.00
2023-04-27T19:45:23.135Z,12.80
2023-04-27T19:47:51.472Z,12.70
2023-04-27T19:50:18.853Z,12.60
2023-04-27T19:52:45.725Z,12.40
2023-04-27T19:55:12.604Z,12.40
2023-04-27T19:57:40.107Z,12.30
2023-04-27T20:00:11.751Z,12.20
2023-04-27T20:02:38.918Z,12.10
2023-04-27T20:05:07.481Z,12.00
2023-04-27T20:07:34.619Z,11.90
2023-04-27T20:10:02.792Z,11.80
2023-04-27T20:15:02.146Z,11.60
2023-04-27T20:17:30.123Z,11.60
2023-04-27T20:19:57.193Z,11.60
2023-04-27T20:22:24.178Z,11.50
2023-04-27T20:24:51.901Z,11.50
2023-04-27T20:27:19.162Z,11.50
2023-04-27T20:29:48.117Z,11.50
2023-04-27T20:32:15.010Z,11.40
2023-04-27T20:34:41.810Z,11.40
2023-04-27T20:37:10.123Z,11.40
2023-04-27T20:39:37.063Z,11.30
2023-04-27T20:42:03.900Z,11.30
2023-04-27T20:44:32.955Z,11.20
2023-04-27T20:47:00.518Z,11.20
2023-04-27T20:49:34.230Z,11.20
2023-04-27T20:52:01.761Z,11.20
2023-04-27T20:54:30.952Z,11.10
2023-04-27T20:56:57.815Z,11.00
2023-04-27T20:59:24.676Z,11.00
2023-04-27T21:01:52.985Z,11.00
2023-04-27T21:04:21.221Z,10.90
2023-04-27T21:06:48.159Z,10.80
2023-04-27T21:09:14.906Z,10.70
2023-04-27T21:11:41.694Z,10.60
2023-04-27T21:14:08.603Z,10.50
2023-04-27T21:16:35.396Z,10.40
2023-04-27T21:19:02.278Z,10.40
2023-04-27T21:21:29.372Z,10.40
2023-04-27T21:24:06.807Z,10.30
2023-04-27T21:26:43.419Z,10.30
2023-04-27T21:29:10.176Z,10.30
2023-04-27T21:31:37.159Z,10.30
2023-04-27T21:34:04.788Z,10.20
2023-04-27T21:36:33.188Z,10.20
2023-04-27T21:39:00.000Z,10.20
2023-04-27T21:41:27.474Z,10.00
2023-04-27T21:43:54.359Z,9.80
2023-04-27T21:46:23.063Z,9.70
2023-04-27T21:48:49.897Z,9.60
2023-04-27T21:51:17.566Z,9.50
2023-04-27T21:53:44.357Z,9.40
2023-04-27T21:56:11.473Z,9.50
2023-04-27T21:58:38.507Z,9.40
2023-04-27T22:01:05.350Z,9.40
2023-04-27T22:03:32.787Z,9.30
2023-04-27T22:05:59.792Z,9.30
2023-04-27T22:08:26.650Z,9.20
2023-04-27T22:10:53.537Z,9.20
2023-04-27T22:13:20.897Z,9.20
2023-04-27T22:15:47.908Z,9.20
2023-04-27T22:18:15.599Z,9.10
2023-04-27T22:20:43.479Z,9.00
2023-04-27T22:23:10.843Z,9.00
2023-04-27T22:25:37.668Z,8.90
2023-04-27T22:28:05.333Z,8.80
2023-04-27T22:30:32.171Z,8.80
2023-04-27T22:32:59.818Z,8.80
2023-04-27T22:35:27.869Z,8.80
2023-04-27T22:37:56.749Z,8.80
2023-04-27T22:40:23.580Z,8.80
2023-04-27T22:42:50.797Z,8.80
2023-04-27T22:45:17.580Z,8.70
2023-04-27T22:47:46.336Z,8.70
2023-04-27T22:50:13.592Z,8.70
2023-04-27T22:52:42.513Z,8.50
2023-04-27T22:55:10.096Z,8.40
2023-04-27T22:57:37.907Z,8.30
2023-04-27T23:00:05.498Z,8.20
2023-04-27T23:02:32.592Z,8.10
2023-04-27T23:05:00.262Z,8.00
2023-04-27T23:07:27.085Z,8.00
2023-04-27T23:09:55.570Z,8.00
2023-04-27T23:12:22.425Z,8.00
2023-04-27T23:14:49.173Z,8.10
2023-04-27T23:17:18.665Z,8.00
2023-04-27T23:19:46.746Z,8.00
2023-04-27T23:22:15.800Z,7.90
2023-04-27T23:24:42.614Z,7.90
2023-04-27T23:27:10.097Z,7.80
2023-04-27T23:29:36.868Z,7.70
2023-04-27T23:32:04.453Z,7.60
2023-04-27T23:34:34.000Z,7.60
2023-04-27T23:37:00.876Z,7.50
2023-04-27T23:39:30.888Z,7.50
2023-04-27T23:41:58.187Z,7.40
2023-04-27T23:44:25.001Z,7.50
2023-04-27T23:46:52.114Z,7.50
2023-04-27T23:49:18.929Z,7.40
2023-04-27T23:51:46.047Z,7.40
2023-04-27T23:54:12.974Z,7.40
2023-04-27T23:56:41.624Z,7.40
2023-04-27T23:59:08.430Z,7.30
